sensor_id;sensor_type;location;lat;lon;timestamp;pressure;altitude;pressure_sealevel;temperature
25514;BMP180;48128;54.242;10.280;2023-02-01T00:01:10;100356.00;;;3.60
25514;BMP180;48128;54.242;10.280;2023-02-01T00:03:37;100362.00;;;3.60
25514;BMP180;48128;54.242;10.280;2023-02-01T00:06:04;100357.00;;;3.60
25514;BMP180;48128;54.242;10.280;2023-02-01T00:08:31;100344.00;;;3.70
25514;BMP180;48128;54.242;10.280;2023-02-01T00:11:06;100357.00;;;3.70
25514;BMP180;48128;54.242;10.280;2023-02-01T00:13:34;100343.00;;;3.80
25514;BMP180;48128;54.242;10.280;2023-02-01T00:19:11;100338.00;;;3.80
25514;BMP180;48128;54.242;10.280;2023-02-01T00:21:38;100353.00;;;3.90
25514;BMP180;48128;54.242;10.280;2023-02-01T00:24:06;100346.00;;;3.90
25514;BMP180;48128;54.242;10.280;2023-02-01T00:26:34;100352.00;;;3.90
25514;BMP180;48128;54.242;10.280;2023-02-01T00:29:04;100364.00;;;3.90
25514;BMP180;48128;54.242;10.280;2023-02-01T00:31:31;100348.00;;;3.90
25514;BMP180;48128;54.242;10.280;2023-02-01T00:33:58;100348.00;;;3.90
25514;BMP180;48128;54.242;10.280;2023-02-01T00:36:25;100343.00;;;3.90
25514;BMP180;48128;54.242;10.280;2023-02-01T00:38:52;100347.00;;;4.00
25514;BMP180;48128;54.242;10.280;2023-02-01T00:41:20;100335.00;;;4.00
25514;BMP180;48128;54.242;10.280;2023-02-01T00:43:48;100347.00;;;4.10
25514;BMP180;48128;54.242;10.280;2023-02-01T00:46:17;100356.00;;;4.10
25514;BMP180;48128;54.242;10.280;2023-02-01T00:48:44;100344.00;;;4.10
25514;BMP180;48128;54.242;10.280;2023-02-01T00:51:13;100342.00;;;4.20
25514;BMP180;48128;54.242;10.280;2023-02-01T00:53:41;100352.00;;;4.20
25514;BMP180;48128;54.242;10.280;2023-02-01T00:56:08;100349.00;;;4.30
25514;BMP180;48128;54.242;10.280;2023-02-01T00:58:35;100347.00;;;4.30
25514;BMP180;48128;54.242;10.280;2023-02-01T01:01:04;100351.00;;;4.40
25514;BMP180;48128;54.242;10.280;2023-02-01T01:03:33;100339.00;;;4.40
25514;BMP180;48128;54.242;10.280;2023-02-01T01:06:02;100355.00;;;4.50
25514;BMP180;48128;54.242;10.280;2023-02-01T01:08:29;100358.00;;;4.50
25514;BMP180;48128;54.242;10.280;2023-02-01T01:10:56;100355.00;;;4.60
25514;BMP180;48128;54.242;10.280;2023-02-01T01:13:23;100369.00;;;4.60
25514;BMP180;48128;54.242;10.280;2023-02-01T01:15:50;100372.00;;;4.60
25514;BMP180;48128;54.242;10.280;2023-02-01T01:18:17;100380.00;;;4.60
25514;BMP180;48128;54.242;10.280;2023-02-01T01:20:44;100366.00;;;4.70
25514;BMP180;48128;54.242;10.280;2023-02-01T01:23:10;100371.00;;;4.70
25514;BMP180;48128;54.242;10.280;2023-02-01T01:25:40;100363.00;;;4.70
25514;BMP180;48128;54.242;10.280;2023-02-01T01:28:07;100359.00;;;4.70
25514;BMP180;48128;54.242;10.280;2023-02-01T01:30:34;100363.00;;;4.70
25514;BMP180;48128;54.242;10.280;2023-02-01T01:33:01;100364.00;;;4.70
25514;BMP180;48128;54.242;10.280;2023-02-01T01:35:30;100374.00;;;4.70
25514;BMP180;48128;54.242;10.280;2023-02-01T01:37:58;100355.00;;;4.70
25514;BMP180;48128;54.242;10.280;2023-02-01T01:40:26;100372.00;;;4.70
25514;BMP180;48128;54.242;10.280;2023-02-01T01:42:53;100363.00;;;4.70
25514;BMP180;48128;54.242;10.280;2023-02-01T01:45:25;100361.00;;;4.80
25514;BMP180;48128;54.242;10.280;2023-02-01T01:47:54;100368.00;;;4.80
25514;BMP180;48128;54.242;10.280;2023-02-01T01:50:33;100367.00;;;4.80
25514;BMP180;48128;54.242;10.280;2023-02-01T01:53:04;100359.00;;;4.70
25514;BMP180;48128;54.242;10.280;2023-02-01T01:55:34;100364.00;;;4.80
25514;BMP180;48128;54.242;10.280;2023-02-01T01:58:05;100354.00;;;4.80
25514;BMP180;48128;54.242;10.280;2023-02-01T02:00:32;100345.00;;;4.80
25514;BMP180;48128;54.242;10.280;2023-02-01T02:03:12;100343.00;;;4.90
25514;BMP180;48128;54.242;10.280;2023-02-01T02:05:41;100356.00;;;4.90
25514;BMP180;48128;54.242;10.280;2023-02-01T02:08:08;100373.00;;;4.90
25514;BMP180;48128;54.242;10.280;2023-02-01T02:10:35;100369.00;;;4.90
25514;BMP180;48128;54.242;10.280;2023-02-01T02:13:23;100337.00;;;4.90
25514;BMP180;48128;54.242;10.280;2023-02-01T02:16:05;100337.00;;;4.90
25514;BMP180;48128;54.242;10.280;2023-02-01T02:21:14;100343.00;;;4.90
25514;BMP180;48128;54.242;10.280;2023-02-01T02:29:28;100332.00;;;4.90
25514;BMP180;48128;54.242;10.280;2023-02-01T02:34:55;100306.00;;;4.80
25514;BMP180;48128;54.242;10.280;2023-02-01T02:37:40;100298.00;;;4.80
25514;BMP180;48128;54.242;10.280;2023-02-01T02:40:16;100288.00;;;4.90
25514;BMP180;48128;54.242;10.280;2023-02-01T02:45:52;100273.00;;;4.90
25514;BMP180;48128;54.242;10.280;2023-02-01T02:51:37;100259.00;;;4.80
25514;BMP180;48128;54.242;10.280;2023-02-01T02:54:26;100267.00;;;4.80
25514;BMP180;48128;54.242;10.280;2023-02-01T02:57:28;100254.00;;;4.80
25514;BMP180;48128;54.242;10.280;2023-02-01T03:00:19;100261.00;;;4.80
25514;BMP180;48128;54.242;10.280;2023-02-01T03:03:06;100269.00;;;4.90
25514;BMP180;48128;54.242;10.280;2023-02-01T03:05:52;100250.00;;;4.90
25514;BMP180;48128;54.242;10.280;2023-02-01T03:08:22;100262.00;;;4.90
25514;BMP180;48128;54.242;10.280;2023-02-01T03:13:51;100243.00;;;4.90
25514;BMP180;48128;54.242;10.280;2023-02-01T03:16:25;100240.00;;;4.90
25514;BMP180;48128;54.242;10.280;2023-02-01T03:19:09;100241.00;;;4.90
25514;BMP180;48128;54.242;10.280;2023-02-01T03:24:18;100223.00;;;4.90
25514;BMP180;48128;54.242;10.280;2023-02-01T03:26:54;100205.00;;;4.90
25514;BMP180;48128;54.242;10.280;2023-02-01T03:30:27;100210.00;;;4.90
25514;BMP180;48128;54.242;10.280;2023-02-01T03:32:19;100204.00;;;4.90
25514;BMP180;48128;54.242;10.280;2023-02-01T03:34:47;100191.00;;;4.90
25514;BMP180;48128;54.242;10.280;2023-02-01T03:37:19;100205.00;;;4.90
25514;BMP180;48128;54.242;10.280;2023-02-01T03:40:05;100210.00;;;4.90
25514;BMP180;48128;54.242;10.280;2023-02-01T03:42:39;100205.00;;;5.00
25514;BMP180;48128;54.242;10.280;2023-02-01T03:45:13;100201.00;;;5.00
25514;BMP180;48128;54.242;10.280;2023-02-01T03:47:42;100208.00;;;5.00
25514;BMP180;48128;54.242;10.280;2023-02-01T03:50:11;100212.00;;;5.00
25514;BMP180;48128;54.242;10.280;2023-02-01T03:55:06;100211.00;;;5.10
25514;BMP180;48128;54.242;10.280;2023-02-01T03:57:35;100250.00;;;5.10
25514;BMP180;48128;54.242;10.280;2023-02-01T04:00:15;100228.00;;;5.10
25514;BMP180;48128;54.242;10.280;2023-02-01T04:02:42;100218.00;;;5.10
25514;BMP180;48128;54.242;10.280;2023-02-01T04:05:09;100211.00;;;4.90
25514;BMP180;48128;54.242;10.280;2023-02-01T04:07:36;100207.00;;;4.80
25514;BMP180;48128;54.242;10.280;2023-02-01T04:10:03;100184.00;;;4.70
25514;BMP180;48128;54.242;10.280;2023-02-01T04:12:30;100166.00;;;4.60
25514;BMP180;48128;54.242;10.280;2023-02-01T04:14:57;100159.00;;;4.50
25514;BMP180;48128;54.242;10.280;2023-02-01T04:17:24;100156.00;;;4.40
25514;BMP180;48128;54.242;10.280;2023-02-01T04:19:51;100160.00;;;4.40
25514;BMP180;48128;54.242;10.280;2023-02-01T04:22:21;100146.00;;;4.30
25514;BMP180;48128;54.242;10.280;2023-02-01T04:24:47;100158.00;;;4.20
25514;BMP180;48128;54.242;10.280;2023-02-01T04:27:14;100151.00;;;4.20
25514;BMP180;48128;54.242;10.280;2023-02-01T04:29:41;100148.00;;;4.20
25514;BMP180;48128;54.242;10.280;2023-02-01T04:32:08;100141.00;;;4.10
25514;BMP180;48128;54.242;10.280;2023-02-01T04:34:35;100137.00;;;4.10
25514;BMP180;48128;54.242;10.280;2023-02-01T04:37:01;100131.00;;;4.10
25514;BMP180;48128;54.242;10.280;2023-02-01T04:39:29;100115.00;;;4.00
25514;BMP180;48128;54.242;10.280;2023-02-01T04:41:55;100137.00;;;4.00
25514;BMP180;48128;54.242;10.280;2023-02-01T04:44:22;100118.00;;;3.90
25514;BMP180;48128;54.242;10.280;2023-02-01T04:46:49;100119.00;;;3.90
25514;BMP180;48128;54.242;10.280;2023-02-01T04:49:16;100137.00;;;3.90
25514;BMP180;48128;54.242;10.280;2023-02-01T04:51:42;100140.00;;;3.90
25514;BMP180;48128;54.242;10.280;2023-02-01T04:54:09;100146.00;;;3.90
25514;BMP180;48128;54.242;10.280;2023-02-01T04:56:38;100132.00;;;3.80
25514;BMP180;48128;54.242;10.280;2023-02-01T04:59:04;100154.00;;;3.80
25514;BMP180;48128;54.242;10.280;2023-02-01T05:01:32;100147.00;;;3.80
25514;BMP180;48128;54.242;10.280;2023-02-01T05:03:58;100138.00;;;3.80
25514;BMP180;48128;54.242;10.280;2023-02-01T05:06:25;100135.00;;;3.80
25514;BMP180;48128;54.242;10.280;2023-02-01T05:08:53;100157.00;;;3.80
25514;BMP180;48128;54.242;10.280;2023-02-01T05:11:20;100153.00;;;3.70
25514;BMP180;48128;54.242;10.280;2023-02-01T05:14:06;100154.00;;;3.70
25514;BMP180;48128;54.242;10.280;2023-02-01T05:16:32;100149.00;;;3.70
25514;BMP180;48128;54.242;10.280;2023-02-01T05:18:59;100146.00;;;3.70
25514;BMP180;48128;54.242;10.280;2023-02-01T05:21:26;100153.00;;;3.70
25514;BMP180;48128;54.242;10.280;2023-02-01T05:23:53;100151.00;;;3.70
25514;BMP180;48128;54.242;10.280;2023-02-01T05:26:40;100154.00;;;3.70
25514;BMP180;48128;54.242;10.280;2023-02-01T05:29:08;100159.00;;;3.70
25514;BMP180;48128;54.242;10.280;2023-02-01T05:31:35;100159.00;;;3.70
25514;BMP180;48128;54.242;10.280;2023-02-01T05:34:03;100152.00;;;3.80
25514;BMP180;48128;54.242;10.280;2023-02-01T05:36:30;100151.00;;;3.80
25514;BMP180;48128;54.242;10.280;2023-02-01T05:38:57;100168.00;;;3.80
25514;BMP180;48128;54.242;10.280;2023-02-01T05:41:24;100160.00;;;3.80
25514;BMP180;48128;54.242;10.280;2023-02-01T05:43:51;100158.00;;;3.80
25514;BMP180;48128;54.242;10.280;2023-02-01T05:46:18;100172.00;;;3.80
25514;BMP180;48128;54.242;10.280;2023-02-01T05:48:44;100177.00;;;3.90
25514;BMP180;48128;54.242;10.280;2023-02-01T05:51:12;100166.00;;;3.90
25514;BMP180;48128;54.242;10.280;2023-02-01T05:53:39;100156.00;;;3.90
25514;BMP180;48128;54.242;10.280;2023-02-01T05:56:06;100161.00;;;3.90
25514;BMP180;48128;54.242;10.280;2023-02-01T05:58:33;100176.00;;;3.90
25514;BMP180;48128;54.242;10.280;2023-02-01T06:01:20;100165.00;;;3.90
25514;BMP180;48128;54.242;10.280;2023-02-01T06:03:52;100176.00;;;3.90
25514;BMP180;48128;54.242;10.280;2023-02-01T06:06:25;100168.00;;;3.90
25514;BMP180;48128;54.242;10.280;2023-02-01T06:08:51;100179.00;;;3.90
25514;BMP180;48128;54.242;10.280;2023-02-01T06:11:18;100172.00;;;3.80
25514;BMP180;48128;54.242;10.280;2023-02-01T06:13:58;100171.00;;;3.80
25514;BMP180;48128;54.242;10.280;2023-02-01T06:16:25;100164.00;;;3.90
25514;BMP180;48128;54.242;10.280;2023-02-01T06:18:51;100168.00;;;3.90
25514;BMP180;48128;54.242;10.280;2023-02-01T06:21:18;100177.00;;;3.90
25514;BMP180;48128;54.242;10.280;2023-02-01T06:23:53;100161.00;;;3.90
25514;BMP180;48128;54.242;10.280;2023-02-01T06:26:20;100160.00;;;3.90
25514;BMP180;48128;54.242;10.280;2023-02-01T06:28:47;100152.00;;;3.90
25514;BMP180;48128;54.242;10.280;2023-02-01T06:31:14;100158.00;;;3.90
25514;BMP180;48128;54.242;10.280;2023-02-01T06:33:41;100157.00;;;3.90
25514;BMP180;48128;54.242;10.280;2023-02-01T06:36:10;100169.00;;;3.80
25514;BMP180;48128;54.242;10.280;2023-02-01T06:38:39;100159.00;;;3.80
25514;BMP180;48128;54.242;10.280;2023-02-01T06:41:06;100167.00;;;3.80
25514;BMP180;48128;54.242;10.280;2023-02-01T06:43:32;100170.00;;;3.80
25514;BMP180;48128;54.242;10.280;2023-02-01T06:46:01;100176.00;;;3.80
25514;BMP180;48128;54.242;10.280;2023-02-01T06:48:31;100167.00;;;3.80
25514;BMP180;48128;54.242;10.280;2023-02-01T06:51:01;100170.00;;;3.80
25514;BMP180;48128;54.242;10.280;2023-02-01T06:53:30;100179.00;;;3.80
25514;BMP180;48128;54.242;10.280;2023-02-01T06:56:15;100175.00;;;3.80
25514;BMP180;48128;54.242;10.280;2023-02-01T06:58:50;100165.00;;;3.80
25514;BMP180;48128;54.242;10.280;2023-02-01T07:01:27;100176.00;;;3.80
25514;BMP180;48128;54.242;10.280;2023-02-01T07:07:11;100173.00;;;3.80
25514;BMP180;48128;54.242;10.280;2023-02-01T07:09:46;100187.00;;;3.80
25514;BMP180;48128;54.242;10.280;2023-02-01T07:12:34;100177.00;;;3.80
25514;BMP180;48128;54.242;10.280;2023-02-01T07:15:28;100178.00;;;3.80
25514;BMP180;48128;54.242;10.280;2023-02-01T07:18:07;100184.00;;;3.80
25514;BMP180;48128;54.242;10.280;2023-02-01T07:21:01;100177.00;;;3.80
25514;BMP180;48128;54.242;10.280;2023-02-01T07:23:45;100185.00;;;3.80
25514;BMP180;48128;54.242;10.280;2023-02-01T07:26:17;100181.00;;;3.90
25514;BMP180;48128;54.242;10.280;2023-02-01T07:28:44;100181.00;;;3.90
25514;BMP180;48128;54.242;10.280;2023-02-01T07:31:13;100171.00;;;3.90
25514;BMP180;48128;54.242;10.280;2023-02-01T07:33:41;100179.00;;;3.90
25514;BMP180;48128;54.242;10.280;2023-02-01T07:36:12;100183.00;;;3.90
25514;BMP180;48128;54.242;10.280;2023-02-01T07:38:39;100178.00;;;3.90
25514;BMP180;48128;54.242;10.280;2023-02-01T07:41:06;100186.00;;;4.00
25514;BMP180;48128;54.242;10.280;2023-02-01T07:43:32;100171.00;;;4.00
25514;BMP180;48128;54.242;10.280;2023-02-01T07:46:00;100185.00;;;4.00
25514;BMP180;48128;54.242;10.280;2023-02-01T07:48:27;100187.00;;;4.10
25514;BMP180;48128;54.242;10.280;2023-02-01T07:50:58;100183.00;;;4.10
25514;BMP180;48128;54.242;10.280;2023-02-01T07:53:26;100199.00;;;4.20
25514;BMP180;48128;54.242;10.280;2023-02-01T07:55:53;100199.00;;;4.30
25514;BMP180;48128;54.242;10.280;2023-02-01T07:58:19;100200.00;;;4.30
25514;BMP180;48128;54.242;10.280;2023-02-01T08:00:46;100207.00;;;4.40
25514;BMP180;48128;54.242;10.280;2023-02-01T08:03:32;100207.00;;;4.40
25514;BMP180;48128;54.242;10.280;2023-02-01T08:05:59;100199.00;;;4.50
25514;BMP180;48128;54.242;10.280;2023-02-01T08:08:25;100204.00;;;4.60
25514;BMP180;48128;54.242;10.280;2023-02-01T08:10:57;100216.00;;;4.70
25514;BMP180;48128;54.242;10.280;2023-02-01T08:13:24;100212.00;;;4.70
25514;BMP180;48128;54.242;10.280;2023-02-01T08:15:51;100230.00;;;4.70
25514;BMP180;48128;54.242;10.280;2023-02-01T08:18:18;100220.00;;;4.70
25514;BMP180;48128;54.242;10.280;2023-02-01T08:20:44;100238.00;;;4.70
25514;BMP180;48128;54.242;10.280;2023-02-01T08:23:12;100221.00;;;4.70
25514;BMP180;48128;54.242;10.280;2023-02-01T08:25:38;100226.00;;;4.70
25514;BMP180;48128;54.242;10.280;2023-02-01T08:28:06;100204.00;;;4.60
25514;BMP180;48128;54.242;10.280;2023-02-01T08:30:33;100201.00;;;4.60
25514;BMP180;48128;54.242;10.280;2023-02-01T08:33:00;100207.00;;;4.60
25514;BMP180;48128;54.242;10.280;2023-02-01T08:35:27;100203.00;;;4.60
25514;BMP180;48128;54.242;10.280;2023-02-01T08:38:09;100203.00;;;4.60
25514;BMP180;48128;54.242;10.280;2023-02-01T08:40:38;100207.00;;;4.70
25514;BMP180;48128;54.242;10.280;2023-02-01T08:43:07;100223.00;;;4.70
25514;BMP180;48128;54.242;10.280;2023-02-01T08:45:34;100218.00;;;4.80
25514;BMP180;48128;54.242;10.280;2023-02-01T08:48:00;100233.00;;;4.80
25514;BMP180;48128;54.242;10.280;2023-02-01T08:50:27;100217.00;;;4.90
25514;BMP180;48128;54.242;10.280;2023-02-01T08:52:54;100234.00;;;5.00
25514;BMP180;48128;54.242;10.280;2023-02-01T08:55:21;100223.00;;;5.00
25514;BMP180;48128;54.242;10.280;2023-02-01T08:57:48;100215.00;;;5.10
25514;BMP180;48128;54.242;10.280;2023-02-01T09:00:16;100232.00;;;5.00
25514;BMP180;48128;54.242;10.280;2023-02-01T09:02:43;100224.00;;;5.00
25514;BMP180;48128;54.242;10.280;2023-02-01T09:05:11;100231.00;;;4.90
25514;BMP180;48128;54.242;10.280;2023-02-01T09:07:38;100226.00;;;4.90
25514;BMP180;48128;54.242;10.280;2023-02-01T09:10:05;100223.00;;;4.90
25514;BMP180;48128;54.242;10.280;2023-02-01T09:12:33;100226.00;;;4.90
25514;BMP180;48128;54.242;10.280;2023-02-01T09:15:00;100232.00;;;5.00
25514;BMP180;48128;54.242;10.280;2023-02-01T09:17:28;100222.00;;;5.10
25514;BMP180;48128;54.242;10.280;2023-02-01T09:19:56;100217.00;;;5.20
25514;BMP180;48128;54.242;10.280;2023-02-01T09:22:23;100215.00;;;5.40
25514;BMP180;48128;54.242;10.280;2023-02-01T09:24:49;100227.00;;;5.50
25514;BMP180;48128;54.242;10.280;2023-02-01T09:27:16;100226.00;;;5.70
25514;BMP180;48128;54.242;10.280;2023-02-01T09:29:43;100216.00;;;5.70
25514;BMP180;48128;54.242;10.280;2023-02-01T09:32:10;100212.00;;;5.70
25514;BMP180;48128;54.242;10.280;2023-02-01T09:34:37;100198.00;;;5.70
25514;BMP180;48128;54.242;10.280;2023-02-01T09:37:04;100209.00;;;5.70
25514;BMP180;48128;54.242;10.280;2023-02-01T09:39:30;100199.00;;;5.70
25514;BMP180;48128;54.242;10.280;2023-02-01T09:44:47;100186.00;;;5.90
25514;BMP180;48128;54.242;10.280;2023-02-01T09:47:17;100204.00;;;5.90
25514;BMP180;48128;54.242;10.280;2023-02-01T09:50:05;100210.00;;;6.00
25514;BMP180;48128;54.242;10.280;2023-02-01T09:52:43;100207.00;;;6.10
25514;BMP180;48128;54.242;10.280;2023-02-01T09:55:15;100200.00;;;6.10
25514;BMP180;48128;54.242;10.280;2023-02-01T09:57:51;100205.00;;;6.10
25514;BMP180;48128;54.242;10.280;2023-02-01T10:00:27;100169.00;;;6.20
25514;BMP180;48128;54.242;10.280;2023-02-01T10:02:55;100184.00;;;6.30
25514;BMP180;48128;54.242;10.280;2023-02-01T10:05:55;100222.00;;;6.40
25514;BMP180;48128;54.242;10.280;2023-02-01T10:09:01;100208.00;;;6.30
25514;BMP180;48128;54.242;10.280;2023-02-01T10:14:32;100177.00;;;6.40
25514;BMP180;48128;54.242;10.280;2023-02-01T10:17:20;100175.00;;;6.60
25514;BMP180;48128;54.242;10.280;2023-02-01T10:22:46;100209.00;;;6.90
25514;BMP180;48128;54.242;10.280;2023-02-01T10:25:55;100192.00;;;7.00
25514;BMP180;48128;54.242;10.280;2023-02-01T10:28:23;100175.00;;;6.90
25514;BMP180;48128;54.242;10.280;2023-02-01T10:30:52;100161.00;;;6.90
25514;BMP180;48128;54.242;10.280;2023-02-01T10:35:55;100165.00;;;7.00
25514;BMP180;48128;54.242;10.280;2023-02-01T10:38:27;100166.00;;;7.00
25514;BMP180;48128;54.242;10.280;2023-02-01T10:40:56;100179.00;;;7.00
25514;BMP180;48128;54.242;10.280;2023-02-01T10:43:25;100162.00;;;7.00
25514;BMP180;48128;54.242;10.280;2023-02-01T10:45:52;100165.00;;;7.00
25514;BMP180;48128;54.242;10.280;2023-02-01T10:48:18;100149.00;;;6.90
25514;BMP180;48128;54.242;10.280;2023-02-01T10:51:02;100143.00;;;6.80
25514;BMP180;48128;54.242;10.280;2023-02-01T10:56:04;100122.00;;;6.90
25514;BMP180;48128;54.242;10.280;2023-02-01T10:58:32;100116.00;;;6.90
25514;BMP180;48128;54.242;10.280;2023-02-01T11:01:03;100131.00;;;6.80
25514;BMP180;48128;54.242;10.280;2023-02-01T11:05:59;100134.00;;;6.60
25514;BMP180;48128;54.242;10.280;2023-02-01T11:08:26;100125.00;;;6.60
25514;BMP180;48128;54.242;10.280;2023-02-01T11:11:01;100110.00;;;6.50
25514;BMP180;48128;54.242;10.280;2023-02-01T11:13:31;100116.00;;;6.50
25514;BMP180;48128;54.242;10.280;2023-02-01T11:15:59;100109.00;;;6.40
25514;BMP180;48128;54.242;10.280;2023-02-01T11:18:30;100076.00;;;6.30
25514;BMP180;48128;54.242;10.280;2023-02-01T11:20:57;100048.00;;;6.20
25514;BMP180;48128;54.242;10.280;2023-02-01T11:23:26;100034.00;;;6.20
25514;BMP180;48128;54.242;10.280;2023-02-01T11:25:58;100011.00;;;6.10
25514;BMP180;48128;54.242;10.280;2023-02-01T11:28:31;100024.00;;;6.20
25514;BMP180;48128;54.242;10.280;2023-02-01T11:31:01;100034.00;;;6.20
25514;BMP180;48128;54.242;10.280;2023-02-01T11:33:33;100016.00;;;6.20
25514;BMP180;48128;54.242;10.280;2023-02-01T11:36:12;100045.00;;;6.20
25514;BMP180;48128;54.242;10.280;2023-02-01T11:38:40;100027.00;;;6.30
25514;BMP180;48128;54.242;10.280;2023-02-01T11:41:13;100029.00;;;6.40
25514;BMP180;48128;54.242;10.280;2023-02-01T11:43:57;100034.00;;;6.50
25514;BMP180;48128;54.242;10.280;2023-02-01T11:46:29;100032.00;;;6.50
25514;BMP180;48128;54.242;10.280;2023-02-01T11:48:57;100033.00;;;6.50
25514;BMP180;48128;54.242;10.280;2023-02-01T11:52:07;100018.00;;;6.50
25514;BMP180;48128;54.242;10.280;2023-02-01T11:54:48;100013.00;;;6.50
25514;BMP180;48128;54.242;10.280;2023-02-01T12:11:50;100012.00;;;6.50
25514;BMP180;48128;54.242;10.280;2023-02-01T12:34:33;99972.00;;;4.80
25514;BMP180;48128;54.242;10.280;2023-02-01T12:37:17;99973.00;;;4.80
25514;BMP180;48128;54.242;10.280;2023-02-01T12:42:55;99974.00;;;4.90
25514;BMP180;48128;54.242;10.280;2023-02-01T12:48:21;99976.00;;;4.90
25514;BMP180;48128;54.242;10.280;2023-02-01T12:50:53;99965.00;;;4.90
25514;BMP180;48128;54.242;10.280;2023-02-01T12:54:00;99968.00;;;4.90
25514;BMP180;48128;54.242;10.280;2023-02-01T12:56:34;99971.00;;;5.00
25514;BMP180;48128;54.242;10.280;2023-02-01T12:59:04;99968.00;;;5.00
25514;BMP180;48128;54.242;10.280;2023-02-01T13:01:45;99968.00;;;5.10
25514;BMP180;48128;54.242;10.280;2023-02-01T13:06:47;99975.00;;;5.10
25514;BMP180;48128;54.242;10.280;2023-02-01T13:09:30;99980.00;;;5.20
25514;BMP180;48128;54.242;10.280;2023-02-01T13:12:05;100005.00;;;5.30
25514;BMP180;48128;54.242;10.280;2023-02-01T13:14:52;99997.00;;;5.40
25514;BMP180;48128;54.242;10.280;2023-02-01T13:17:23;100009.00;;;5.60
25514;BMP180;48128;54.242;10.280;2023-02-01T13:20:07;100009.00;;;5.60
25514;BMP180;48128;54.242;10.280;2023-02-01T13:22:46;100030.00;;;5.80
25514;BMP180;48128;54.242;10.280;2023-02-01T13:25:47;100042.00;;;6.00
25514;BMP180;48128;54.242;10.280;2023-02-01T13:42:13;100030.00;;;5.10
25514;BMP180;48128;54.242;10.280;2023-02-01T13:44:47;100006.00;;;5.00
25514;BMP180;48128;54.242;10.280;2023-02-01T13:47:26;99987.00;;;5.10
25514;BMP180;48128;54.242;10.280;2023-02-01T13:49:56;99979.00;;;5.10
25514;BMP180;48128;54.242;10.280;2023-02-01T13:52:37;99986.00;;;5.10
25514;BMP180;48128;54.242;10.280;2023-02-01T13:55:23;99990.00;;;5.00
25514;BMP180;48128;54.242;10.280;2023-02-01T13:57:59;100004.00;;;5.00
25514;BMP180;48128;54.242;10.280;2023-02-01T14:00:31;99991.00;;;5.00
25514;BMP180;48128;54.242;10.280;2023-02-01T14:27:35;100019.00;;;5.20
25514;BMP180;48128;54.242;10.280;2023-02-01T14:30:06;100035.00;;;5.30
25514;BMP180;48128;54.242;10.280;2023-02-01T14:32:37;100029.00;;;5.40
25514;BMP180;48128;54.242;10.280;2023-02-01T14:35:23;100042.00;;;5.40
25514;BMP180;48128;54.242;10.280;2023-02-01T14:37:53;100057.00;;;5.40
25514;BMP180;48128;54.242;10.280;2023-02-01T14:40:24;100069.00;;;5.40
25514;BMP180;48128;54.242;10.280;2023-02-01T14:42:52;100058.00;;;5.40
25514;BMP180;48128;54.242;10.280;2023-02-01T14:50:43;100060.00;;;5.40
25514;BMP180;48128;54.242;10.280;2023-02-01T15:01:14;100066.00;;;5.20
25514;BMP180;48128;54.242;10.280;2023-02-01T15:11:30;100082.00;;;5.40
25514;BMP180;48128;54.242;10.280;2023-02-01T15:13:57;100094.00;;;5.40
25514;BMP180;48128;54.242;10.280;2023-02-01T15:16:25;100082.00;;;5.30
25514;BMP180;48128;54.242;10.280;2023-02-01T15:19:07;100080.00;;;5.30
25514;BMP180;48128;54.242;10.280;2023-02-01T15:21:47;100088.00;;;5.30
25514;BMP180;48128;54.242;10.280;2023-02-01T15:24:20;100094.00;;;5.20
25514;BMP180;48128;54.242;10.280;2023-02-01T15:26:47;100091.00;;;5.20
25514;BMP180;48128;54.242;10.280;2023-02-01T15:29:14;100076.00;;;5.20
25514;BMP180;48128;54.242;10.280;2023-02-01T15:31:44;100090.00;;;5.20
25514;BMP180;48128;54.242;10.280;2023-02-01T15:34:12;100085.00;;;5.20
25514;BMP180;48128;54.242;10.280;2023-02-01T15:36:40;100091.00;;;5.20
25514;BMP180;48128;54.242;10.280;2023-02-01T15:39:23;100091.00;;;5.20
25514;BMP180;48128;54.242;10.280;2023-02-01T15:41:54;100107.00;;;5.20
25514;BMP180;48128;54.242;10.280;2023-02-01T15:44:39;100099.00;;;5.20
25514;BMP180;48128;54.242;10.280;2023-02-01T15:47:20;100099.00;;;5.20
25514;BMP180;48128;54.242;10.280;2023-02-01T15:49:51;100112.00;;;5.20
25514;BMP180;48128;54.242;10.280;2023-02-01T15:52:39;100100.00;;;5.20
25514;BMP180;48128;54.242;10.280;2023-02-01T15:55:37;100102.00;;;5.20
25514;BMP180;48128;54.242;10.280;2023-02-01T15:58:14;100115.00;;;5.10
25514;BMP180;48128;54.242;10.280;2023-02-01T16:00:46;100107.00;;;5.20
25514;BMP180;48128;54.242;10.280;2023-02-01T16:06:09;100114.00;;;5.10
25514;BMP180;48128;54.242;10.280;2023-02-01T16:08:37;100129.00;;;5.10
25514;BMP180;48128;54.242;10.280;2023-02-01T16:13:34;100119.00;;;5.20
25514;BMP180;48128;54.242;10.280;2023-02-01T16:16:01;100129.00;;;5.20
25514;BMP180;48128;54.242;10.280;2023-02-01T16:18:30;100124.00;;;5.20
25514;BMP180;48128;54.242;10.280;2023-02-01T16:20:57;100143.00;;;5.20
25514;BMP180;48128;54.242;10.280;2023-02-01T16:23:24;100133.00;;;5.30
25514;BMP180;48128;54.242;10.280;2023-02-01T16:25:50;100140.00;;;5.30
25514;BMP180;48128;54.242;10.280;2023-02-01T16:28:17;100144.00;;;5.30
25514;BMP180;48128;54.242;10.280;2023-02-01T16:30:44;100138.00;;;5.40
25514;BMP180;48128;54.242;10.280;2023-02-01T16:33:15;100144.00;;;5.40
25514;BMP180;48128;54.242;10.280;2023-02-01T16:35:46;100153.00;;;5.40
25514;BMP180;48128;54.242;10.280;2023-02-01T16:38:15;100157.00;;;5.40
25514;BMP180;48128;54.242;10.280;2023-02-01T16:40:48;100163.00;;;5.40
25514;BMP180;48128;54.242;10.280;2023-02-01T16:43:22;100143.00;;;5.40
25514;BMP180;48128;54.242;10.280;2023-02-01T16:48:59;100136.00;;;5.20
25514;BMP180;48128;54.242;10.280;2023-02-01T16:51:56;100119.00;;;5.10
25514;BMP180;48128;54.242;10.280;2023-02-01T16:54:38;100116.00;;;5.10
25514;BMP180;48128;54.242;10.280;2023-02-01T16:57:11;100128.00;;;5.00
25514;BMP180;48128;54.242;10.280;2023-02-01T16:59:39;100130.00;;;5.10
25514;BMP180;48128;54.242;10.280;2023-02-01T17:02:13;100136.00;;;5.10